Time;durP1;ratioP1;P1;durP2;ratioP2;P2;SDS_P1;SDS_P2;PMS_P1;PMS_P2;Temp;Humidity;BMP_temperature;BMP_pressure;BME280_temperature;BME280_humidity;BME280_pressure;Samples;Min_cycle;Max_cycle;Signal;HPM_P1;HPM_P2
2021/08/02 00:01:10;;;;;;;1.10;1.00;;;12.70;99.90;;;;;;5031076;28;20019;-82
2021/08/02 00:03:45;;;;;;;2.13;1.70;;;12.60;99.90;;;;;;5032587;28;20009;-82
2021/08/02 00:06:19;;;;;;;3.67;1.27;;;12.60;99.90;;;;;;5030269;28;20022;-81
2021/08/02 00:08:47;;;;;;;3.72;1.33;;;12.60;99.90;;;;;;5031252;28;20166;-82
2021/08/02 00:11:14;;;;;;;3.80;1.70;;;12.60;99.90;;;;;;5031709;28;20030;-82
2021/08/02 00:13:40;;;;;;;4.05;1.52;;;12.60;99.90;;;;;;5031632;28;20021;-81
2021/08/02 00:16:07;;;;;;;4.65;1.70;;;12.50;99.90;;;;;;5030687;28;20484;-82
2021/08/02 00:18:34;;;;;;;2.97;1.38;;;12.50;99.90;;;;;;5032439;28;20121;-82
2021/08/02 00:21:04;;;;;;;3.67;1.63;;;12.50;99.90;;;;;;5031484;28;20017;-82
2021/08/02 00:23:29;;;;;;;1.95;1.60;;;12.50;99.90;;;;;;5032034;28;20021;-82
2021/08/02 00:26:02;;;;;;;3.05;1.25;;;12.50;99.90;;;;;;5030664;28;20033;-82
2021/08/02 00:28:29;;;;;;;2.80;1.48;;;12.40;99.90;;;;;;5030985;28;20028;-82
2021/08/02 00:30:55;;;;;;;2.08;1.27;;;12.40;99.90;;;;;;5031030;28;20049;-82
2021/08/02 00:33:22;;;;;;;2.53;1.33;;;12.40;99.90;;;;;;5028976;28;20093;-82
2021/08/02 00:36:08;;;;;;;4.20;1.73;;;12.50;99.90;;;;;;5030151;28;20113;-81
2021/08/02 00:38:57;;;;;;;;;;;12.50;99.90;;;;;;5029919;28;20025;-82
2021/08/02 00:41:34;;;;;;;4.55;3.20;;;12.50;99.90;;;;;;5024197;28;19909;-82
2021/08/02 00:44:29;;;;;;;4.78;3.58;;;12.50;99.90;;;;;;5030945;28;20032;-82
2021/08/02 00:47:02;;;;;;;4.63;3.03;;;12.50;99.90;;;;;;5005718;28;20083;-82
2021/08/02 00:49:28;;;;;;;3.95;2.35;;;12.50;99.90;;;;;;5027456;28;20029;-82
2021/08/02 00:51:56;;;;;;;3.22;1.52;;;12.50;99.90;;;;;;5020785;28;20392;-82
2021/08/02 00:54:24;;;;;;;3.20;2.17;;;12.50;99.90;;;;;;5026277;28;20025;-82
2021/08/02 00:56:54;;;;;;;3.47;1.70;;;12.50;99.90;;;;;;5028576;28;20515;-82
2021/08/02 00:59:23;;;;;;;2.35;1.50;;;12.60;99.90;;;;;;5028001;28;20558;-82
2021/08/02 01:01:49;;;;;;;4.65;1.77;;;12.60;99.90;;;;;;5029488;28;20026;-82
2021/08/02 01:04:15;;;;;;;4.78;1.75;;;12.60;99.90;;;;;;5029057;28;20487;-82
2021/08/02 01:06:44;;;;;;;2.22;1.95;;;12.60;99.90;;;;;;5029742;28;20035;-82
2021/08/02 01:09:15;;;;;;;3.15;1.65;;;12.60;99.90;;;;;;5028634;28;20025;-82
2021/08/02 01:11:41;;;;;;;4.55;1.88;;;12.60;99.90;;;;;;5030602;28;20539;-82
2021/08/02 01:14:06;;;;;;;2.05;1.90;;;12.50;99.90;;;;;;5030555;28;20125;-82
2021/08/02 01:16:34;;;;;;;4.07;1.60;;;12.60;99.90;;;;;;5028986;28;20075;-82
2021/08/02 01:19:08;;;;;;;1.90;1.52;;;12.60;99.90;;;;;;5030545;28;20033;-82
2021/08/02 01:21:38;;;;;;;9.27;2.55;;;12.50;99.90;;;;;;5029537;28;20017;-81
2021/08/02 01:24:11;;;;;;;4.50;2.13;;;12.50;99.90;;;;;;5029335;28;20032;-80
2021/08/02 01:26:42;;;;;;;3.85;1.42;;;12.50;99.90;;;;;;5023703;28;20018;-81
2021/08/02 01:29:46;;;;;;;2.90;1.60;;;12.50;99.90;;;;;;5026905;28;20465;-81
2021/08/02 01:32:17;;;;;;;3.00;1.75;;;12.50;99.90;;;;;;5029045;28;20018;-81
2021/08/02 01:34:43;;;;;;;3.80;1.88;;;12.50;99.90;;;;;;5028130;28;20029;-81
2021/08/02 01:37:10;;;;;;;3.50;1.65;;;12.50;99.90;;;;;;5028751;28;20033;-82
2021/08/02 01:39:36;;;;;;;3.25;1.63;;;12.50;99.90;;;;;;5030823;28;20014;-82
2021/08/02 01:42:03;;;;;;;5.13;1.90;;;12.60;99.90;;;;;;5028684;28;20052;-82
2021/08/02 01:44:28;;;;;;;3.28;1.88;;;12.60;99.90;;;;;;5028706;28;20021;-82
2021/08/02 01:46:57;;;;;;;2.15;1.52;;;12.60;99.90;;;;;;5028988;28;20021;-81
2021/08/02 01:49:31;;;;;;;2.92;1.80;;;12.60;99.90;;;;;;5029626;28;20026;-81
2021/08/02 01:51:58;;;;;;;4.70;1.25;;;12.60;99.90;;;;;;5030353;28;20018;-81
2021/08/02 01:54:51;;;;;;;3.88;1.90;;;12.60;99.90;;;;;;5029866;28;20059;-81
2021/08/02 01:57:34;;;;;;;2.92;1.80;;;12.60;99.90;;;;;;5025227;28;20423;-81
2021/08/02 02:00:14;;;;;;;2.75;1.67;;;12.70;99.90;;;;;;5031442;28;20031;-82
2021/08/02 02:02:42;;;;;;;1.48;1.00;;;12.70;99.90;;;;;;5040919;28;20049;-81
2021/08/02 02:05:36;;;;;;;2.78;1.17;;;12.70;99.90;;;;;;5027832;28;20033;-82
2021/08/02 02:08:16;;;;;;;4.55;2.10;;;12.70;99.90;;;;;;5027628;28;20473;-81
2021/08/02 02:10:47;;;;;;;4.68;2.10;;;12.80;99.90;;;;;;5030037;28;20710;-81
2021/08/02 02:13:18;;;;;;;3.30;1.52;;;12.80;99.90;;;;;;5031936;28;20577;-82
2021/08/02 02:15:48;;;;;;;5.10;1.77;;;12.80;99.90;;;;;;5032982;28;20022;-81
2021/08/02 02:18:15;;;;;;;1.88;1.60;;;12.80;99.90;;;;;;5032352;28;20417;-82
2021/08/02 02:20:43;;;;;;;5.68;1.92;;;12.90;99.90;;;;;;5033158;28;20680;-82
2021/08/02 02:23:10;;;;;;;4.40;2.13;;;12.90;99.90;;;;;;5033753;28;20469;-82
2021/08/02 02:34:18;;;;;;;2.28;1.67;;;13.00;99.90;;;;;;5041573;28;20393;-55
2021/08/02 02:36:45;;;;;;;1.45;1.23;;;13.00;99.90;;;;;;5039756;28;20013;-55
2021/08/02 02:39:11;;;;;;;1.92;1.50;;;13.00;99.90;;;;;;5039984;28;20522;-56
2021/08/02 02:41:39;;;;;;;3.88;1.55;;;13.00;99.90;;;;;;5038230;28;20026;-56
2021/08/02 02:44:05;;;;;;;1.90;1.50;;;13.00;99.90;;;;;;5039895;28;20522;-57
2021/08/02 02:46:32;;;;;;;3.42;1.40;;;13.00;99.90;;;;;;5039570;28;20030;-52
2021/08/02 02:48:59;;;;;;;2.85;1.95;;;13.00;99.90;;;;;;5047183;28;20021;-53
2021/08/02 02:51:29;;;;;;;2.30;1.35;;;13.00;99.90;;;;;;5039553;28;20040;-55
2021/08/02 02:53:57;;;;;;;4.43;1.73;;;13.00;99.90;;;;;;5039967;28;20029;-55
2021/08/02 02:56:23;;;;;;;4.82;1.42;;;13.00;99.90;;;;;;5039275;28;20025;-55
2021/08/02 02:58:49;;;;;;;5.70;1.58;;;13.00;99.90;;;;;;5039153;28;20026;-53
2021/08/02 03:01:19;;;;;;;3.40;1.33;;;13.00;99.90;;;;;;5040868;28;20026;-54
2021/08/02 03:03:50;;;;;;;3.35;1.52;;;13.00;99.90;;;;;;5039205;28;20087;-55
2021/08/02 03:06:17;;;;;;;3.85;1.45;;;13.00;99.90;;;;;;5038850;28;20100;-54
2021/08/02 03:08:44;;;;;;;8.00;1.65;;;13.00;99.90;;;;;;5038802;28;20033;-55
2021/08/02 03:11:12;;;;;;;3.03;1.60;;;13.00;99.90;;;;;;5039426;28;20117;-56
2021/08/02 03:13:38;;;;;;;5.75;1.77;;;13.00;99.90;;;;;;5037590;28;20029;-56
2021/08/02 03:16:06;;;;;;;4.03;1.67;;;13.00;99.90;;;;;;5040500;28;20073;-54
2021/08/02 03:18:33;;;;;;;3.60;2.03;;;13.00;99.90;;;;;;5038701;28;20022;-53
2021/08/02 03:20:58;;;;;;;7.82;2.17;;;13.00;99.90;;;;;;5040047;28;20105;-54
2021/08/02 03:23:31;;;;;;;3.50;1.60;;;13.00;99.90;;;;;;5038096;28;20092;-56
2021/08/02 03:26:01;;;;;;;3.97;2.05;;;13.00;99.90;;;;;;5039897;28;20071;-55
2021/08/02 03:28:38;;;;;;;6.18;1.70;;;13.00;99.90;;;;;;5037756;28;20044;-53
2021/08/02 03:31:10;;;;;;;5.22;2.15;;;13.00;99.90;;;;;;5040647;28;20056;-54
2021/08/02 03:33:39;;;;;;;4.32;2.08;;;13.00;99.90;;;;;;5044590;28;20052;-53
2021/08/02 03:36:14;;;;;;;8.82;1.70;;;13.10;99.90;;;;;;5035266;28;20021;-56
2021/08/02 03:38:41;;;;;;;2.90;1.40;;;13.10;99.90;;;;;;5041463;28;20085;-54
2021/08/02 03:41:08;;;;;;;4.75;1.98;;;13.10;99.90;;;;;;5033998;28;20517;-53
2021/08/02 03:43:35;;;;;;;3.35;1.52;;;13.10;99.90;;;;;;5041846;28;20046;-53
2021/08/02 03:46:03;;;;;;;7.03;1.80;;;13.10;99.90;;;;;;5040332;28;20013;-54
2021/08/02 03:48:29;;;;;;;2.67;1.52;;;13.10;99.90;;;;;;5035843;28;20021;-54
2021/08/02 03:50:55;;;;;;;3.78;1.75;;;13.10;99.90;;;;;;5041052;28;20020;-54
2021/08/02 03:53:20;;;;;;;3.08;1.52;;;13.10;99.90;;;;;;5035229;28;20501;-53
2021/08/02 03:55:46;;;;;;;3.08;1.55;;;13.10;99.90;;;;;;5040514;28;20052;-54
2021/08/02 03:58:13;;;;;;;2.45;1.30;;;13.10;99.90;;;;;;5033577;28;20025;-57
2021/08/02 04:00:38;;;;;;;4.13;1.60;;;13.10;99.90;;;;;;5041425;28;20033;-56
2021/08/02 04:03:05;;;;;;;2.13;1.75;;;13.10;99.90;;;;;;5039251;28;20083;-54
2021/08/02 04:05:30;;;;;;;4.03;1.75;;;13.10;99.90;;;;;;5036785;28;20034;-55
2021/08/02 04:07:58;;;;;;;3.17;1.45;;;13.10;99.90;;;;;;5038758;28;20031;-56
2021/08/02 04:10:25;;;;;;;2.83;1.65;;;13.10;99.90;;;;;;5035252;28;20017;-56
2021/08/02 04:12:50;;;;;;;3.25;1.60;;;13.10;99.90;;;;;;5043652;28;20052;-56
2021/08/02 04:15:16;;;;;;;5.38;1.75;;;13.10;99.90;;;;;;5031287;28;20044;-54
2021/08/02 04:17:41;;;;;;;4.35;1.55;;;13.10;99.90;;;;;;5040963;28;20075;-55
2021/08/02 04:20:08;;;;;;;2.80;1.40;;;13.10;99.90;;;;;;5037555;28;20021;-55
2021/08/02 04:22:33;;;;;;;1.27;1.15;;;13.10;99.90;;;;;;5037104;28;20017;-55
2021/08/02 04:24:59;;;;;;;11.65;2.20;;;13.20;99.90;;;;;;5039840;28;20467;-54
2021/08/02 04:27:24;;;;;;;1.95;1.20;;;13.20;99.90;;;;;;5035547;28;20020;-54
2021/08/02 04:29:50;;;;;;;2.50;1.77;;;13.20;99.90;;;;;;5041683;28;20626;-55
2021/08/02 04:32:16;;;;;;;2.55;1.42;;;13.20;99.90;;;;;;5031950;28;20031;-57
2021/08/02 04:34:41;;;;;;;3.25;1.40;;;13.20;99.90;;;;;;5038649;28;20045;-55
2021/08/02 04:37:07;;;;;;;3.47;1.30;;;13.20;99.90;;;;;;5036964;28;20121;-53
2021/08/02 04:39:32;;;;;;;3.28;1.98;;;13.30;99.90;;;;;;5037521;28;20025;-53
2021/08/02 04:41:58;;;;;;;4.45;2.42;;;13.30;99.90;;;;;;5037807;28;20021;-54
2021/08/02 04:44:24;;;;;;;3.42;1.92;;;13.30;99.90;;;;;;5041415;22;20458;-54
2021/08/02 04:46:49;;;;;;;4.65;1.65;;;13.30;99.90;;;;;;5017795;28;20459;-50
2021/08/02 04:49:15;;;;;;;1.70;1.60;;;13.30;99.90;;;;;;5015177;28;20037;-50
2021/08/02 04:51:41;;;;;;;1.75;1.27;;;13.30;99.90;;;;;;5023187;28;20025;-53
2021/08/02 04:54:06;;;;;;;3.90;1.50;;;13.30;99.90;;;;;;5019147;28;20396;-51
2021/08/02 04:56:32;;;;;;;2.45;1.27;;;13.30;99.90;;;;;;5006453;28;20021;-53
2021/08/02 04:58:57;;;;;;;2.13;1.30;;;13.30;99.90;;;;;;5008681;28;20034;-52
2021/08/02 05:01:23;;;;;;;1.67;1.58;;;13.30;99.90;;;;;;5005773;28;20022;-50
2021/08/02 05:03:49;;;;;;;3.38;1.50;;;13.30;99.90;;;;;;5008288;28;20030;-54
2021/08/02 05:06:14;;;;;;;5.82;1.25;;;13.30;99.90;;;;;;5008184;28;20044;-53
2021/08/02 05:08:40;;;;;;;2.78;1.60;;;13.30;99.90;;;;;;5007026;28;20399;-52
2021/08/02 05:11:05;;;;;;;4.38;1.65;;;13.40;99.90;;;;;;5008477;28;20155;-52
2021/08/02 05:13:31;;;;;;;2.88;1.88;;;13.40;99.90;;;;;;5006762;28;20022;-54
2021/08/02 05:15:56;;;;;;;4.68;1.65;;;13.40;99.90;;;;;;5008104;28;20055;-51
2021/08/02 05:18:22;;;;;;;7.03;1.60;;;13.40;99.90;;;;;;5005157;28;20018;-51
2021/08/02 05:20:48;;;;;;;2.70;1.38;;;13.50;99.90;;;;;;5007742;28;20029;-53
2021/08/02 05:23:13;;;;;;;2.55;1.58;;;13.50;99.90;;;;;;5008632;28;20018;-52
2021/08/02 05:25:39;;;;;;;3.22;1.20;;;13.50;99.90;;;;;;5006746;28;20115;-53
2021/08/02 05:28:05;;;;;;;3.05;1.70;;;13.60;99.90;;;;;;5007128;28;20026;-51
2021/08/02 05:30:30;;;;;;;1.98;1.40;;;13.70;99.90;;;;;;4995571;28;20042;-53
2021/08/02 05:32:56;;;;;;;8.13;1.98;;;13.70;99.90;;;;;;4993373;28;20026;-50
2021/08/02 05:35:22;;;;;;;3.45;1.70;;;13.80;99.90;;;;;;5007866;28;20555;-53
2021/08/02 05:37:48;;;;;;;1.90;1.65;;;13.90;99.90;;;;;;5002636;28;20029;-54
2021/08/02 05:40:14;;;;;;;1.85;1.42;;;13.90;99.90;;;;;;5005137;28;20579;-51
2021/08/02 05:42:40;;;;;;;2.42;1.60;;;14.00;99.90;;;;;;5001647;28;20056;-55
2021/08/02 05:45:07;;;;;;;2.25;1.40;;;14.10;99.90;;;;;;5002366;28;20053;-54
2021/08/02 05:47:33;;;;;;;5.53;1.80;;;14.20;99.90;;;;;;5005930;28;20022;-55
2021/08/02 05:49:59;;;;;;;4.20;1.75;;;14.20;99.90;;;;;;5005531;28;20100;-53
2021/08/02 05:52:25;;;;;;;6.18;1.50;;;14.30;99.90;;;;;;5007550;28;20547;-51
2021/08/02 05:54:50;;;;;;;3.03;1.38;;;14.30;99.90;;;;;;5001963;28;20021;-53
2021/08/02 05:57:22;;;;;;;1.35;1.02;;;14.20;99.90;;;;;;5006314;28;20022;-54
2021/08/02 05:59:48;;;;;;;2.47;1.85;;;14.20;99.90;;;;;;4992438;28;20089;-55
2021/08/02 06:02:14;;;;;;;3.22;1.33;;;14.30;99.90;;;;;;5002382;28;20014;-53
2021/08/02 06:04:40;;;;;;;3.40;1.67;;;14.30;99.90;;;;;;5007138;28;20030;-52
2021/08/02 06:07:05;;;;;;;1.83;1.30;;;14.30;99.90;;;;;;5004784;28;20069;-52
2021/08/02 06:09:31;;;;;;;5.03;1.90;;;14.40;99.90;;;;;;5006749;28;20057;-51
2021/08/02 06:11:57;;;;;;;5.28;1.73;;;14.50;99.90;;;;;;5005697;28;20026;-53
2021/08/02 06:14:22;;;;;;;5.07;1.58;;;14.60;99.90;;;;;;5005064;28;20559;-56
2021/08/02 06:16:49;;;;;;;3.90;1.73;;;14.60;99.90;;;;;;5006454;28;20057;-52
2021/08/02 06:19:15;;;;;;;6.65;1.83;;;14.60;99.90;;;;;;5002751;28;20262;-56
2021/08/02 06:21:41;;;;;;;3.22;1.40;;;14.60;99.90;;;;;;5007892;28;20022;-55
2021/08/02 06:24:06;;;;;;;3.58;1.83;;;14.60;99.90;;;;;;5007877;28;20027;-54
2021/08/02 06:26:32;;;;;;;3.42;1.42;;;14.70;99.90;;;;;;5007881;28;20160;-56
2021/08/02 06:28:58;;;;;;;1.90;1.65;;;14.80;99.90;;;;;;5006980;28;20026;-52
2021/08/02 06:31:24;;;;;;;3.05;1.65;;;14.90;99.90;;;;;;5005235;28;20109;-52
2021/08/02 06:33:49;;;;;;;2.78;1.35;;;15.00;99.90;;;;;;5007745;28;20576;-55
2021/08/02 06:36:20;;;;;;;3.08;1.58;;;15.10;99.90;;;;;;4997365;28;20027;-53
2021/08/02 06:38:46;;;;;;;4.70;1.65;;;15.10;99.90;;;;;;5005334;28;20388;-53
2021/08/02 06:41:12;;;;;;;3.17;1.55;;;15.10;99.90;;;;;;5005371;28;20034;-52
2021/08/02 06:43:37;;;;;;;4.07;1.10;;;15.20;99.90;;;;;;5002096;28;20026;-57
2021/08/02 06:46:05;;;;;;;2.53;1.23;;;15.30;99.90;;;;;;5007380;28;20046;-54
2021/08/02 06:48:31;;;;;;;3.97;1.70;;;15.40;99.90;;;;;;5006866;28;20030;-53
2021/08/02 06:50:56;;;;;;;6.38;1.75;;;15.50;99.90;;;;;;4996841;28;20088;-52
2021/08/02 06:53:22;;;;;;;1.48;1.30;;;15.70;99.90;;;;;;4997409;28;20033;-56
2021/08/02 06:55:48;;;;;;;2.95;1.30;;;15.80;99.90;;;;;;5005504;28;20026;-54
2021/08/02 06:58:15;;;;;;;6.88;1.95;;;15.80;99.90;;;;;;5006631;28;20025;-52
2021/08/02 07:00:41;;;;;;;5.47;2.38;;;15.80;99.90;;;;;;5006055;28;20153;-54
2021/08/02 07:03:06;;;;;;;2.42;1.05;;;15.70;99.90;;;;;;5009119;28;20026;-54
2021/08/02 07:05:32;;;;;;;2.42;1.13;;;15.60;99.90;;;;;;5006760;28;20432;-53
2021/08/02 07:07:57;;;;;;;3.25;1.25;;;15.50;99.90;;;;;;5009694;28;20492;-53
2021/08/02 07:10:23;;;;;;;3.47;1.40;;;15.40;99.90;;;;;;5007055;28;20023;-51
2021/08/02 07:12:49;;;;;;;3.17;1.10;;;15.10;99.90;;;;;;5008793;28;20499;-51
2021/08/02 07:15:15;;;;;;;2.80;1.20;;;15.00;99.90;;;;;;5007848;28;20018;-52
2021/08/02 07:17:40;;;;;;;2.30;1.35;;;14.90;99.90;;;;;;5005769;28;20033;-52
2021/08/02 07:20:07;;;;;;;3.45;0.90;;;14.80;99.90;;;;;;5010459;28;20037;-51
2021/08/02 07:22:33;;;;;;;2.10;1.20;;;14.80;99.90;;;;;;5006717;28;20045;-51
2021/08/02 07:24:58;;;;;;;2.03;1.15;;;14.90;99.90;;;;;;5009356;28;20026;-49
2021/08/02 07:27:24;;;;;;;1.40;1.00;;;14.80;99.90;;;;;;5006419;28;20026;-52
2021/08/02 07:29:49;;;;;;;3.20;1.65;;;14.80;99.90;;;;;;5008123;28;20271;-51
2021/08/02 07:32:15;;;;;;;2.33;1.08;;;14.90;99.90;;;;;;4999851;28;20102;-52
2021/08/02 07:34:40;;;;;;;2.72;1.20;;;15.00;99.90;;;;;;5007912;28;20033;-52
2021/08/02 07:37:06;;;;;;;6.18;1.10;;;15.10;99.90;;;;;;5005763;28;20014;-52
2021/08/02 07:39:32;;;;;;;3.13;0.98;;;15.20;99.90;;;;;;5008517;28;20032;-51
2021/08/02 07:41:58;;;;;;;2.20;1.73;;;15.20;99.90;;;;;;5005090;28;20153;-52
2021/08/02 07:44:24;;;;;;;4.65;2.88;;;15.30;99.90;;;;;;5005977;28;20111;-51
2021/08/02 07:46:49;;;;;;;3.55;1.65;;;15.50;99.90;;;;;;5009285;28;20066;-51
2021/08/02 07:49:15;;;;;;;3.42;1.60;;;15.70;99.90;;;;;;4999022;28;20030;-53
2021/08/02 07:51:41;;;;;;;3.78;1.70;;;15.80;99.90;;;;;;5008920;28;20029;-51
2021/08/02 07:54:06;;;;;;;2.38;1.15;;;16.00;99.90;;;;;;5005499;28;20025;-52
2021/08/02 07:56:33;;;;;;;1.70;1.20;;;16.00;99.90;;;;;;5006341;28;20116;-53
2021/08/02 07:58:59;;;;;;;3.15;1.27;;;16.10;99.90;;;;;;5004006;28;20149;-51
2021/08/02 08:01:25;;;;;;;1.77;1.10;;;16.30;99.90;;;;;;5007173;28;20025;-52
2021/08/02 08:03:51;;;;;;;2.25;1.50;;;16.50;99.90;;;;;;5007666;28;20637;-55
2021/08/02 08:06:16;;;;;;;1.92;1.13;;;16.80;99.90;;;;;;5005761;28;20044;-52
2021/08/02 08:08:42;;;;;;;2.72;1.60;;;17.00;99.90;;;;;;5008137;28;20034;-52
2021/08/02 08:11:09;;;;;;;1.20;1.10;;;17.10;99.90;;;;;;5004686;28;20097;-51
2021/08/02 08:13:36;;;;;;;3.10;1.20;;;17.20;99.90;;;;;;5007323;28;20026;-51
2021/08/02 08:16:02;;;;;;;2.75;1.50;;;17.30;99.90;;;;;;5003981;28;20495;-51
2021/08/02 08:18:29;;;;;;;2.55;1.38;;;17.40;99.90;;;;;;5006903;28;20040;-51
2021/08/02 08:20:55;;;;;;;3.70;1.20;;;17.40;99.90;;;;;;5009284;28;20029;-52
2021/08/02 08:23:20;;;;;;;3.70;1.55;;;17.60;99.90;;;;;;5006129;28;20022;-52
2021/08/02 08:25:46;;;;;;;3.03;1.33;;;17.90;99.90;;;;;;5007860;28;20033;-54
2021/08/02 08:28:11;;;;;;;2.55;1.00;;;18.10;99.90;;;;;;5005059;28;20026;-54
2021/08/02 08:30:37;;;;;;;3.33;1.20;;;18.20;99.90;;;;;;5007767;28;20483;-53
2021/08/02 08:33:03;;;;;;;3.05;1.63;;;18.10;99.90;;;;;;5004240;28;20447;-52
2021/08/02 08:35:29;;;;;;;4.32;1.33;;;18.00;99.90;;;;;;5008852;28;20091;-53
2021/08/02 08:37:54;;;;;;;3.20;0.95;;;18.10;99.90;;;;;;5004435;28;20037;-54
2021/08/02 08:40:22;;;;;;;3.05;1.60;;;18.00;99.90;;;;;;5008250;28;20022;-53
2021/08/02 08:42:49;;;;;;;1.42;0.85;;;17.90;99.90;;;;;;5004290;28;20072;-56
2021/08/02 08:45:15;;;;;;;2.75;0.80;;;18.00;99.90;;;;;;5005792;28;20120;-55
2021/08/02 08:47:41;;;;;;;4.30;1.05;;;17.90;99.90;;;;;;5009406;28;20149;-57
2021/08/02 08:50:08;;;;;;;2.60;1.10;;;18.10;99.90;;;;;;5007605;28;20030;-57
2021/08/02 08:52:35;;;;;;;5.60;1.30;;;18.20;99.90;;;;;;5009714;28;20551;-56
2021/08/02 08:55:08;;;;;;;2.88;1.50;;;18.50;99.90;;;;;;5001129;28;20030;-55
2021/08/02 08:57:33;;;;;;;2.35;1.20;;;18.70;99.90;;;;;;5003670;28;20382;-54
2021/08/02 08:59:59;;;;;;;4.57;1.20;;;18.80;99.90;;;;;;5002269;28;20026;-55
2021/08/02 09:02:27;;;;;;;1.83;1.05;;;18.60;99.90;;;;;;5006348;28;20106;-56
2021/08/02 09:04:57;;;;;;;4.35;1.33;;;18.40;99.90;;;;;;5008624;28;20017;-57
2021/08/02 09:07:37;;;;;;;1.73;1.17;;;18.30;99.90;;;;;;5004743;28;20033;-55
2021/08/02 09:10:06;;;;;;;2.05;1.15;;;18.20;99.90;;;;;;5007497;28;20739;-53
2021/08/02 09:12:32;;;;;;;3.10;1.63;;;18.00;99.90;;;;;;5003496;28;20022;-57
2021/08/02 09:15:02;;;;;;;2.95;1.27;;;17.90;99.90;;;;;;5007555;28;20028;-57
2021/08/02 09:17:38;;;;;;;1.67;1.13;;;17.90;99.90;;;;;;5003574;28;20165;-58
2021/08/02 09:20:17;;;;;;;1.05;0.60;;;17.90;99.90;;;;;;5009346;28;20022;-53
2021/08/02 09:22:42;;;;;;;2.35;0.90;;;17.80;99.90;;;;;;5005031;28;20636;-54
2021/08/02 09:25:12;;;;;;;1.85;1.48;;;17.70;99.90;;;;;;5006669;28;20065;-54
2021/08/02 09:27:39;;;;;;;2.03;0.90;;;17.60;99.90;;;;;;5003593;28;20496;-54
2021/08/02 09:30:19;;;;;;;3.45;1.23;;;17.50;99.90;;;;;;5005924;28;20065;-55
2021/08/02 09:32:56;;;;;;;2.60;1.20;;;17.50;99.90;;;;;;5002379;28;20026;-55
2021/08/02 09:35:33;;;;;;;2.03;0.95;;;17.50;99.90;;;;;;5007331;28;20101;-54
2021/08/02 09:38:06;;;;;;;2.00;1.25;;;17.50;99.90;;;;;;5002100;28;20101;-54
2021/08/02 09:40:43;;;;;;;1.10;1.00;;;17.60;99.90;;;;;;4991009;28;20137;-56
2021/08/02 09:43:20;;;;;;;2.05;1.10;;;17.70;99.90;;;;;;4992171;28;20027;-54
2021/08/02 09:45:51;;;;;;;3.47;1.02;;;17.70;99.90;;;;;;4992103;28;20034;-56
2021/08/02 09:48:18;;;;;;;4.22;1.13;;;17.80;99.90;;;;;;5001158;28;20128;-54
2021/08/02 09:50:46;;;;;;;2.05;1.00;;;18.10;99.90;;;;;;5012872;28;20030;-55
2021/08/02 09:53:18;;;;;;;2.65;1.75;;;18.40;99.90;;;;;;4993890;28;20041;-56
2021/08/02 09:55:45;;;;;;;3.95;1.23;;;18.90;99.90;;;;;;5007301;28;20175;-53
2021/08/02 09:58:14;;;;;;;2.58;1.48;;;19.20;99.90;;;;;;5008113;28;20057;-55
2021/08/02 10:00:40;;;;;;;2.75;1.40;;;18.90;99.90;;;;;;5008097;28;20146;-57
2021/08/02 10:03:06;;;;;;;1.02;0.85;;;18.80;99.90;;;;;;5007018;28;20033;-57
2021/08/02 10:05:35;;;;;;;5.40;1.08;;;18.60;99.90;;;;;;5007938;28;20010;-55
2021/08/02 10:08:03;;;;;;;4.03;1.45;;;18.50;99.90;;;;;;4994336;28;20484;-56
2021/08/02 10:10:28;;;;;;;2.88;1.98;;;18.40;99.90;;;;;;4989619;28;20062;-54
2021/08/02 10:12:55;;;;;;;2.38;1.27;;;18.30;99.90;;;;;;4989298;28;20054;-54
2021/08/02 10:15:26;;;;;;;3.90;1.38;;;18.20;99.90;;;;;;4988045;28;20089;-56
2021/08/02 10:17:55;;;;;;;1.33;1.15;;;18.20;99.90;;;;;;4988619;28;20018;-55
2021/08/02 10:20:28;;;;;;;3.58;1.30;;;18.00;99.90;;;;;;5002800;28;20104;-56
2021/08/02 10:22:55;;;;;;;2.22;1.38;;;17.90;99.90;;;;;;5007886;28;20022;-57
2021/08/02 10:25:40;;;;;;;2.88;1.50;;;17.90;99.90;;;;;;5007429;28;20648;-56
2021/08/02 10:28:13;;;;;;;5.60;1.67;;;17.80;99.90;;;;;;5007261;28;20033;-56
2021/08/02 10:30:41;;;;;;;3.10;1.55;;;17.80;99.90;;;;;;5008361;28;20025;-55
2021/08/02 10:33:08;;;;;;;4.70;1.58;;;18.00;99.90;;;;;;5011171;28;20022;-55
2021/08/02 10:35:42;;;;;;;4.63;1.40;;;18.20;99.90;;;;;;5011622;28;20026;-55
2021/08/02 10:38:15;;;;;;;2.80;1.83;;;18.30;99.90;;;;;;5004316;28;20018;-56
2021/08/02 10:40:45;;;;;;;3.15;1.48;;;18.30;99.90;;;;;;5011155;28;20597;-53
2021/08/02 10:43:11;;;;;;;3.85;1.65;;;18.10;99.90;;;;;;5003029;28;20716;-54
2021/08/02 10:45:38;;;;;;;3.10;1.25;;;18.10;99.90;;;;;;5010491;28;20060;-52
2021/08/02 10:48:05;;;;;;;2.83;1.90;;;18.00;99.90;;;;;;5010602;28;20109;-54
2021/08/02 10:50:41;;;;;;;1.25;1.15;;;17.80;99.90;;;;;;5010044;28;20539;-54
2021/08/02 10:53:17;;;;;;;2.42;1.60;;;17.70;99.90;;;;;;5031492;22;21188;-57
2021/08/02 10:55:44;;;;;;;4.43;1.58;;;17.70;99.90;;;;;;5047806;28;20100;-57
2021/08/02 10:58:10;;;;;;;4.97;1.52;;;17.60;99.90;;;;;;5048117;28;20045;-57
2021/08/02 11:00:36;;;;;;;5.47;1.45;;;17.70;99.90;;;;;;5045037;28;20076;-56
2021/08/02 11:03:05;;;;;;;5.68;1.40;;;17.70;99.90;;;;;;5048236;28;20491;-56
2021/08/02 11:05:32;;;;;;;5.70;1.48;;;17.50;99.90;;;;;;5026500;28;20071;-55
2021/08/02 11:08:05;;;;;;;3.45;1.77;;;17.60;99.90;;;;;;5029705;28;20081;-57
2021/08/02 11:10:32;;;;;;;3.75;1.73;;;17.60;99.90;;;;;;5025956;28;20108;-53
2021/08/02 11:12:57;;;;;;;1.52;1.25;;;17.70;99.90;;;;;;5027907;28;20127;-55
2021/08/02 11:15:23;;;;;;;3.35;1.20;;;17.90;99.90;;;;;;5026458;28;20500;-57
2021/08/02 11:17:51;;;;;;;2.50;1.30;;;17.90;99.90;;;;;;5025172;28;20051;-57
2021/08/02 11:20:16;;;;;;;2.40;1.10;;;18.10;99.90;;;;;;5023318;28;20101;-55
2021/08/02 11:22:52;;;;;;;1.00;0.90;;;18.20;99.90;;;;;;5027347;28;20557;-56
2021/08/02 11:25:28;;;;;;;3.65;1.15;;;18.20;99.90;;;;;;5023429;28;20048;-57
2021/08/02 11:27:56;;;;;;;1.98;1.17;;;18.30;99.90;;;;;;5025994;28;20037;-53
2021/08/02 11:30:23;;;;;;;2.72;1.30;;;18.20;99.90;;;;;;5028520;28;20021;-54
2021/08/02 11:32:49;;;;;;;3.20;1.20;;;18.30;99.90;;;;;;5025004;28;20072;-54
2021/08/02 11:35:15;;;;;;;4.30;1.10;;;18.20;99.90;;;;;;5030450;28;20540;-58
2021/08/02 11:37:50;;;;;;;2.35;1.10;;;18.30;99.90;;;;;;5026200;28;20021;-58
2021/08/02 11:40:16;;;;;;;3.63;1.10;;;18.40;99.90;;;;;;5028040;28;20447;-57
2021/08/02 11:42:44;;;;;;;2.97;1.55;;;18.60;99.90;;;;;;5023905;28;20033;-56
2021/08/02 11:45:10;;;;;;;1.98;1.45;;;18.80;99.90;;;;;;5026143;28;20031;-57
2021/08/02 11:47:42;;;;;;;3.47;1.55;;;19.00;99.90;;;;;;5029001;28;20014;-56
2021/08/02 11:50:08;;;;;;;1.67;1.02;;;19.10;99.90;;;;;;5027959;28;20029;-56
2021/08/02 11:52:34;;;;;;;4.70;1.30;;;19.10;99.90;;;;;;5030401;28;20117;-57
2021/08/02 11:55:04;;;;;;;4.03;1.70;;;19.10;99.90;;;;;;5023547;28;20120;-56
2021/08/02 11:57:30;;;;;;;1.38;1.10;;;18.90;99.90;;;;;;5029678;28;20152;-55
2021/08/02 12:00:07;;;;;;;3.55;1.38;;;18.80;99.90;;;;;;5023367;28;20104;-56
2021/08/02 12:02:37;;;;;;;4.97;1.30;;;18.80;99.90;;;;;;5028445;28;20399;-54
2021/08/02 12:05:09;;;;;;;1.77;1.15;;;18.70;99.90;;;;;;5028162;28;20045;-54
2021/08/02 12:07:34;;;;;;;2.78;0.93;;;18.60;99.90;;;;;;5027029;28;20555;-55
2021/08/02 12:10:18;;;;;;;1.75;1.20;;;18.40;99.90;;;;;;5027320;28;20116;-56
2021/08/02 12:12:55;;;;;;;3.20;1.20;;;18.50;99.90;;;;;;5026875;28;20614;-52
2021/08/02 12:15:21;;;;;;;4.22;1.33;;;18.50;99.90;;;;;;5018763;28;20102;-55
2021/08/02 12:17:47;;;;;;;2.20;1.30;;;18.50;99.90;;;;;;5025261;28;20104;-55
2021/08/02 12:20:13;;;;;;;3.97;1.48;;;18.40;99.90;;;;;;5029301;28;20048;-54
2021/08/02 12:22:39;;;;;;;3.72;1.10;;;18.50;99.90;;;;;;5026015;28;20077;-55
2021/08/02 12:25:06;;;;;;;2.80;1.33;;;18.50;99.90;;;;;;5028224;28;20507;-53
2021/08/02 12:27:32;;;;;;;2.42;1.50;;;18.50;99.90;;;;;;5024964;28;20379;-57
2021/08/02 12:30:08;;;;;;;4.18;1.55;;;18.60;99.90;;;;;;5026513;28;20021;-56
2021/08/02 12:32:45;;;;;;;2.58;0.90;;;18.60;99.90;;;;;;5023766;28;20021;-56
2021/08/02 12:35:13;;;;;;;1.08;0.88;;;18.60;99.90;;;;;;5028754;28;20029;-55
2021/08/02 12:37:40;;;;;;;3.60;1.52;;;18.60;99.90;;;;;;5025166;28;20431;-56
2021/08/02 12:40:09;;;;;;;3.75;1.10;;;18.60;99.90;;;;;;5027372;28;20021;-57
2021/08/02 12:42:42;;;;;;;1.77;1.10;;;18.70;99.90;;;;;;5024235;28;20097;-54
2021/08/02 12:45:10;;;;;;;2.05;1.00;;;18.70;99.90;;;;;;5025461;28;20026;-56
2021/08/02 12:47:36;;;;;;;2.78;1.25;;;18.70;99.90;;;;;;5029336;28;20092;-56
2021/08/02 12:50:05;;;;;;;2.13;0.90;;;18.60;99.90;;;;;;5027478;28;20060;-57
2021/08/02 12:52:31;;;;;;;4.25;1.20;;;18.60;99.90;;;;;;5020453;28;20048;-57
2021/08/02 12:54:59;;;;;;;4.22;2.10;;;18.60;99.90;;;;;;5011321;28;20030;-56
2021/08/02 12:57:29;;;;;;;3.40;1.42;;;18.50;99.90;;;;;;5012035;28;20010;-57
2021/08/02 12:59:58;;;;;;;3.08;1.05;;;18.50;99.90;;;;;;5018837;28;20049;-55
2021/08/02 13:02:28;;;;;;;2.28;0.70;;;18.70;99.90;;;;;;5025474;28;20013;-51